sensor_id;sensor_type;location;lat;lon;timestamp;P1;durP1;ratioP1;P2;durP2;ratioP2
59008;SDS011;44794;42.652;23.318;2022-10-12T00:00:49;61.80;;;37.38;;
59008;SDS011;44794;42.652;23.318;2022-10-12T00:03:15;67.40;;;39.65;;
59008;SDS011;44794;42.652;23.318;2022-10-12T00:05:42;73.65;;;39.40;;
59008;SDS011;44794;42.652;23.318;2022-10-12T00:08:08;64.25;;;38.17;;
59008;SDS011;44794;42.652;23.318;2022-10-12T00:10:33;63.88;;;38.83;;
59008;SDS011;44794;42.652;23.318;2022-10-12T00:13:03;66.70;;;38.38;;
59008;SDS011;44794;42.652;23.318;2022-10-12T00:15:28;64.55;;;38.42;;
59008;SDS011;44794;42.652;23.318;2022-10-12T00:17:54;63.67;;;38.47;;
59008;SDS011;44794;42.652;23.318;2022-10-12T00:20:19;66.75;;;39.08;;
59008;SDS011;44794;42.652;23.318;2022-10-12T00:22:45;68.28;;;38.85;;
59008;SDS011;44794;42.652;23.318;2022-10-12T00:25:10;64.15;;;37.88;;
59008;SDS011;44794;42.652;23.318;2022-10-12T00:27:36;65.88;;;39.08;;
59008;SDS011;44794;42.652;23.318;2022-10-12T00:30:01;68.80;;;38.65;;
59008;SDS011;44794;42.652;23.318;2022-10-12T00:32:26;65.47;;;37.25;;
59008;SDS011;44794;42.652;23.318;2022-10-12T00:34:52;66.55;;;38.33;;
59008;SDS011;44794;42.652;23.318;2022-10-12T00:37:17;63.78;;;38.17;;
59008;SDS011;44794;42.652;23.318;2022-10-12T00:39:43;66.22;;;38.33;;
59008;SDS011;44794;42.652;23.318;2022-10-12T00:42:11;67.68;;;38.00;;
59008;SDS011;44794;42.652;23.318;2022-10-12T00:44:39;63.28;;;37.42;;
59008;SDS011;44794;42.652;23.318;2022-10-12T00:49:47;70.45;;;37.05;;
59008;SDS011;44794;42.652;23.318;2022-10-12T00:52:21;65.75;;;39.10;;
59008;SDS011;44794;42.652;23.318;2022-10-12T00:54:51;69.30;;;38.63;;
59008;SDS011;44794;42.652;23.318;2022-10-12T00:57:19;66.97;;;38.58;;
59008;SDS011;44794;42.652;23.318;2022-10-12T00:59:48;62.85;;;37.63;;
59008;SDS011;44794;42.652;23.318;2022-10-12T01:02:16;64.60;;;38.03;;
59008;SDS011;44794;42.652;23.318;2022-10-12T01:04:43;56.00;;;34.72;;
59008;SDS011;44794;42.652;23.318;2022-10-12T01:07:09;53.90;;;32.83;;
59008;SDS011;44794;42.652;23.318;2022-10-12T01:09:34;57.03;;;33.90;;
59008;SDS011;44794;42.652;23.318;2022-10-12T01:12:00;51.75;;;30.38;;
59008;SDS011;44794;42.652;23.318;2022-10-12T01:14:29;54.28;;;32.25;;
59008;SDS011;44794;42.652;23.318;2022-10-12T01:22:28;53.30;;;30.02;;
59008;SDS011;44794;42.652;23.318;2022-10-12T01:28:04;53.45;;;31.55;;
59008;SDS011;44794;42.652;23.318;2022-10-12T01:30:41;56.72;;;33.05;;
59008;SDS011;44794;42.652;23.318;2022-10-12T01:35:53;67.25;;;37.78;;
59008;SDS011;44794;42.652;23.318;2022-10-12T01:43:46;65.05;;;38.25;;
59008;SDS011;44794;42.652;23.318;2022-10-12T01:48:39;68.70;;;39.85;;
59008;SDS011;44794;42.652;23.318;2022-10-12T01:51:07;68.20;;;39.65;;
59008;SDS011;44794;42.652;23.318;2022-10-12T01:53:49;66.68;;;38.85;;
59008;SDS011;44794;42.652;23.318;2022-10-12T01:56:44;69.72;;;38.80;;
59008;SDS011;44794;42.652;23.318;2022-10-12T02:10:37;72.32;;;40.55;;
59008;SDS011;44794;42.652;23.318;2022-10-12T02:13:10;68.20;;;38.97;;
59008;SDS011;44794;42.652;23.318;2022-10-12T02:15:37;72.03;;;39.75;;
59008;SDS011;44794;42.652;23.318;2022-10-12T02:18:06;69.25;;;39.38;;
59008;SDS011;44794;42.652;23.318;2022-10-12T02:20:36;71.53;;;40.70;;
59008;SDS011;44794;42.652;23.318;2022-10-12T02:23:04;74.32;;;40.70;;
59008;SDS011;44794;42.652;23.318;2022-10-12T02:25:30;67.80;;;39.90;;
59008;SDS011;44794;42.652;23.318;2022-10-12T02:28:08;71.60;;;41.05;;
59008;SDS011;44794;42.652;23.318;2022-10-12T02:30:42;68.65;;;39.10;;
59008;SDS011;44794;42.652;23.318;2022-10-12T02:33:20;71.30;;;39.88;;
59008;SDS011;44794;42.652;23.318;2022-10-12T02:35:56;70.38;;;41.42;;
59008;SDS011;44794;42.652;23.318;2022-10-12T02:38:34;65.88;;;38.58;;
59008;SDS011;44794;42.652;23.318;2022-10-12T02:41:07;64.60;;;38.75;;
59008;SDS011;44794;42.652;23.318;2022-10-12T02:43:47;67.93;;;39.75;;
59008;SDS011;44794;42.652;23.318;2022-10-12T02:46:21;66.78;;;39.42;;
59008;SDS011;44794;42.652;23.318;2022-10-12T02:48:49;69.50;;;40.13;;
59008;SDS011;44794;42.652;23.318;2022-10-12T02:51:18;69.47;;;40.28;;
59008;SDS011;44794;42.652;23.318;2022-10-12T02:53:45;67.43;;;39.97;;
59008;SDS011;44794;42.652;23.318;2022-10-12T02:56:12;73.72;;;41.50;;
59008;SDS011;44794;42.652;23.318;2022-10-12T02:58:40;72.93;;;42.50;;
59008;SDS011;44794;42.652;23.318;2022-10-12T03:01:07;76.43;;;42.53;;
59008;SDS011;44794;42.652;23.318;2022-10-12T03:03:33;73.88;;;41.30;;
59008;SDS011;44794;42.652;23.318;2022-10-12T03:05:58;75.70;;;42.58;;
59008;SDS011;44794;42.652;23.318;2022-10-12T03:08:23;75.72;;;41.03;;
59008;SDS011;44794;42.652;23.318;2022-10-12T03:10:49;73.75;;;41.80;;
59008;SDS011;44794;42.652;23.318;2022-10-12T03:13:14;79.35;;;41.75;;
59008;SDS011;44794;42.652;23.318;2022-10-12T03:15:40;75.70;;;42.40;;
59008;SDS011;44794;42.652;23.318;2022-10-12T03:18:05;76.90;;;42.33;;
59008;SDS011;44794;42.652;23.318;2022-10-12T03:20:30;74.13;;;41.28;;
59008;SDS011;44794;42.652;23.318;2022-10-12T03:22:56;77.32;;;42.03;;
59008;SDS011;44794;42.652;23.318;2022-10-12T03:25:21;76.80;;;43.38;;
59008;SDS011;44794;42.652;23.318;2022-10-12T03:27:47;76.68;;;41.97;;
59008;SDS011;44794;42.652;23.318;2022-10-12T03:30:12;75.20;;;42.58;;
59008;SDS011;44794;42.652;23.318;2022-10-12T03:32:38;72.47;;;42.45;;
59008;SDS011;44794;42.652;23.318;2022-10-12T03:35:04;75.55;;;42.00;;
59008;SDS011;44794;42.652;23.318;2022-10-12T03:37:30;76.78;;;40.90;;
59008;SDS011;44794;42.652;23.318;2022-10-12T03:39:56;71.82;;;41.25;;
59008;SDS011;44794;42.652;23.318;2022-10-12T03:42:21;72.10;;;41.45;;
59008;SDS011;44794;42.652;23.318;2022-10-12T03:44:47;76.10;;;41.47;;
59008;SDS011;44794;42.652;23.318;2022-10-12T03:47:12;73.15;;;41.08;;
59008;SDS011;44794;42.652;23.318;2022-10-12T03:49:38;72.03;;;42.08;;
59008;SDS011;44794;42.652;23.318;2022-10-12T03:52:03;75.35;;;43.10;;
59008;SDS011;44794;42.652;23.318;2022-10-12T03:54:29;76.25;;;43.25;;
59008;SDS011;44794;42.652;23.318;2022-10-12T03:56:54;79.32;;;43.55;;
59008;SDS011;44794;42.652;23.318;2022-10-12T03:59:20;78.18;;;43.85;;
59008;SDS011;44794;42.652;23.318;2022-10-12T04:01:46;78.78;;;43.38;;
59008;SDS011;44794;42.652;23.318;2022-10-12T04:04:11;80.07;;;44.38;;
59008;SDS011;44794;42.652;23.318;2022-10-12T04:06:37;78.85;;;44.90;;
59008;SDS011;44794;42.652;23.318;2022-10-12T04:09:02;82.47;;;45.85;;
59008;SDS011;44794;42.652;23.318;2022-10-12T04:11:28;85.20;;;45.17;;
59008;SDS011;44794;42.652;23.318;2022-10-12T04:13:53;81.35;;;44.50;;
59008;SDS011;44794;42.652;23.318;2022-10-12T04:16:19;81.25;;;44.97;;
59008;SDS011;44794;42.652;23.318;2022-10-12T04:18:44;81.55;;;46.20;;
59008;SDS011;44794;42.652;23.318;2022-10-12T04:21:11;82.07;;;44.17;;
59008;SDS011;44794;42.652;23.318;2022-10-12T04:23:38;78.05;;;44.65;;
59008;SDS011;44794;42.652;23.318;2022-10-12T04:26:04;79.25;;;44.60;;
59008;SDS011;44794;42.652;23.318;2022-10-12T04:28:30;72.30;;;42.05;;
59008;SDS011;44794;42.652;23.318;2022-10-12T04:30:56;81.50;;;44.05;;
59008;SDS011;44794;42.652;23.318;2022-10-12T04:33:21;80.25;;;45.13;;
59008;SDS011;44794;42.652;23.318;2022-10-12T04:35:46;82.80;;;44.33;;
59008;SDS011;44794;42.652;23.318;2022-10-12T04:38:12;75.82;;;42.47;;
59008;SDS011;44794;42.652;23.318;2022-10-12T04:40:38;74.05;;;42.80;;
59008;SDS011;44794;42.652;23.318;2022-10-12T04:43:03;76.63;;;43.90;;
59008;SDS011;44794;42.652;23.318;2022-10-12T04:45:29;79.80;;;43.05;;
59008;SDS011;44794;42.652;23.318;2022-10-12T04:47:54;77.57;;;41.90;;
59008;SDS011;44794;42.652;23.318;2022-10-12T04:50:20;89.90;;;50.10;;
59008;SDS011;44794;42.652;23.318;2022-10-12T04:52:46;69.95;;;41.15;;
59008;SDS011;44794;42.652;23.318;2022-10-12T04:55:12;75.30;;;40.85;;
59008;SDS011;44794;42.652;23.318;2022-10-12T04:57:37;80.95;;;44.03;;
59008;SDS011;44794;42.652;23.318;2022-10-12T05:00:03;81.10;;;43.25;;
59008;SDS011;44794;42.652;23.318;2022-10-12T05:02:29;77.13;;;42.67;;
59008;SDS011;44794;42.652;23.318;2022-10-12T05:04:55;80.15;;;43.10;;
59008;SDS011;44794;42.652;23.318;2022-10-12T05:07:20;78.60;;;43.53;;
59008;SDS011;44794;42.652;23.318;2022-10-12T05:09:45;79.97;;;44.03;;
59008;SDS011;44794;42.652;23.318;2022-10-12T05:12:11;80.43;;;43.45;;
59008;SDS011;44794;42.652;23.318;2022-10-12T05:14:36;79.88;;;43.65;;
59008;SDS011;44794;42.652;23.318;2022-10-12T05:17:02;83.30;;;43.75;;
59008;SDS011;44794;42.652;23.318;2022-10-12T05:19:28;81.15;;;43.90;;
59008;SDS011;44794;42.652;23.318;2022-10-12T05:21:54;78.22;;;44.17;;
59008;SDS011;44794;42.652;23.318;2022-10-12T05:24:19;84.05;;;44.10;;
59008;SDS011;44794;42.652;23.318;2022-10-12T05:26:45;92.85;;;45.13;;
59008;SDS011;44794;42.652;23.318;2022-10-12T05:29:10;83.78;;;44.60;;
59008;SDS011;44794;42.652;23.318;2022-10-12T05:31:36;83.10;;;43.60;;
59008;SDS011;44794;42.652;23.318;2022-10-12T05:34:01;89.35;;;45.90;;
59008;SDS011;44794;42.652;23.318;2022-10-12T05:36:26;84.20;;;43.38;;
59008;SDS011;44794;42.652;23.318;2022-10-12T05:38:52;80.93;;;41.60;;
59008;SDS011;44794;42.652;23.318;2022-10-12T05:41:17;78.22;;;41.10;;
59008;SDS011;44794;42.652;23.318;2022-10-12T05:43:43;81.20;;;40.60;;
59008;SDS011;44794;42.652;23.318;2022-10-12T05:46:09;66.03;;;37.60;;
59008;SDS011;44794;42.652;23.318;2022-10-12T05:48:34;64.28;;;35.13;;
59008;SDS011;44794;42.652;23.318;2022-10-12T05:50:59;69.25;;;36.33;;
59008;SDS011;44794;42.652;23.318;2022-10-12T05:53:25;59.45;;;35.58;;
59008;SDS011;44794;42.652;23.318;2022-10-12T05:55:54;62.78;;;34.22;;
59008;SDS011;44794;42.652;23.318;2022-10-12T05:58:21;54.25;;;30.73;;
59008;SDS011;44794;42.652;23.318;2022-10-12T06:00:47;48.92;;;30.88;;
59008;SDS011;44794;42.652;23.318;2022-10-12T06:03:12;51.63;;;30.38;;
59008;SDS011;44794;42.652;23.318;2022-10-12T06:05:38;51.70;;;29.52;;
59008;SDS011;44794;42.652;23.318;2022-10-12T06:08:04;49.92;;;30.35;;
59008;SDS011;44794;42.652;23.318;2022-10-12T06:10:29;58.00;;;29.70;;
59008;SDS011;44794;42.652;23.318;2022-10-12T06:12:55;50.33;;;29.40;;
59008;SDS011;44794;42.652;23.318;2022-10-12T06:15:21;47.30;;;28.00;;
59008;SDS011;44794;42.652;23.318;2022-10-12T06:17:46;49.67;;;28.33;;
59008;SDS011;44794;42.652;23.318;2022-10-12T06:20:12;51.22;;;27.35;;
59008;SDS011;44794;42.652;23.318;2022-10-12T06:22:37;47.90;;;28.70;;
59008;SDS011;44794;42.652;23.318;2022-10-12T06:25:03;43.03;;;27.48;;
59008;SDS011;44794;42.652;23.318;2022-10-12T06:27:29;48.00;;;27.80;;
59008;SDS011;44794;42.652;23.318;2022-10-12T06:29:54;44.63;;;27.83;;
59008;SDS011;44794;42.652;23.318;2022-10-12T06:32:20;47.88;;;27.48;;
59008;SDS011;44794;42.652;23.318;2022-10-12T06:34:45;41.53;;;26.77;;
59008;SDS011;44794;42.652;23.318;2022-10-12T06:37:11;40.67;;;26.58;;
59008;SDS011;44794;42.652;23.318;2022-10-12T06:39:36;40.10;;;26.23;;
59008;SDS011;44794;42.652;23.318;2022-10-12T06:42:01;39.80;;;25.55;;
59008;SDS011;44794;42.652;23.318;2022-10-12T06:44:27;41.60;;;25.23;;
59008;SDS011;44794;42.652;23.318;2022-10-12T06:46:53;39.08;;;25.65;;
59008;SDS011;44794;42.652;23.318;2022-10-12T06:49:18;38.45;;;25.67;;
59008;SDS011;44794;42.652;23.318;2022-10-12T06:51:44;43.22;;;26.13;;
59008;SDS011;44794;42.652;23.318;2022-10-12T06:54:09;41.05;;;26.00;;
59008;SDS011;44794;42.652;23.318;2022-10-12T06:56:35;37.83;;;26.10;;
59008;SDS011;44794;42.652;23.318;2022-10-12T06:59:02;36.65;;;25.27;;
59008;SDS011;44794;42.652;23.318;2022-10-12T07:01:27;43.10;;;26.75;;
59008;SDS011;44794;42.652;23.318;2022-10-12T07:03:53;40.33;;;26.23;;
59008;SDS011;44794;42.652;23.318;2022-10-12T07:06:18;42.00;;;26.27;;
59008;SDS011;44794;42.652;23.318;2022-10-12T07:08:44;42.72;;;26.27;;
59008;SDS011;44794;42.652;23.318;2022-10-12T07:11:10;40.97;;;26.67;;
59008;SDS011;44794;42.652;23.318;2022-10-12T07:13:37;41.03;;;25.17;;
59008;SDS011;44794;42.652;23.318;2022-10-12T07:16:03;38.88;;;26.45;;
59008;SDS011;44794;42.652;23.318;2022-10-12T07:18:28;40.17;;;26.00;;
59008;SDS011;44794;42.652;23.318;2022-10-12T07:20:57;35.88;;;24.95;;
59008;SDS011;44794;42.652;23.318;2022-10-12T07:23:24;38.80;;;24.63;;
59008;SDS011;44794;42.652;23.318;2022-10-12T07:25:51;36.83;;;24.92;;
59008;SDS011;44794;42.652;23.318;2022-10-12T07:28:17;47.63;;;26.40;;
59008;SDS011;44794;42.652;23.318;2022-10-12T07:30:43;41.20;;;25.17;;
59008;SDS011;44794;42.652;23.318;2022-10-12T07:33:09;42.17;;;24.98;;
59008;SDS011;44794;42.652;23.318;2022-10-12T07:35:35;37.40;;;24.25;;
59008;SDS011;44794;42.652;23.318;2022-10-12T07:38:00;42.10;;;25.30;;
59008;SDS011;44794;42.652;23.318;2022-10-12T07:40:27;41.55;;;24.35;;
59008;SDS011;44794;42.652;23.318;2022-10-12T07:42:52;41.95;;;24.35;;
59008;SDS011;44794;42.652;23.318;2022-10-12T07:45:18;39.67;;;25.05;;
59008;SDS011;44794;42.652;23.318;2022-10-12T07:47:44;39.17;;;25.60;;
59008;SDS011;44794;42.652;23.318;2022-10-12T07:50:11;40.45;;;24.60;;
59008;SDS011;44794;42.652;23.318;2022-10-12T07:52:36;43.05;;;24.98;;
59008;SDS011;44794;42.652;23.318;2022-10-12T07:55:02;36.97;;;25.02;;
59008;SDS011;44794;42.652;23.318;2022-10-12T07:57:28;42.47;;;24.58;;
59008;SDS011;44794;42.652;23.318;2022-10-12T07:59:53;38.15;;;25.40;;
59008;SDS011;44794;42.652;23.318;2022-10-12T08:02:18;39.08;;;26.00;;
59008;SDS011;44794;42.652;23.318;2022-10-12T08:04:45;37.65;;;24.48;;
59008;SDS011;44794;42.652;23.318;2022-10-12T08:07:10;39.58;;;24.98;;
59008;SDS011;44794;42.652;23.318;2022-10-12T08:09:36;37.88;;;24.45;;
59008;SDS011;44794;42.652;23.318;2022-10-12T08:12:02;42.05;;;25.45;;
59008;SDS011;44794;42.652;23.318;2022-10-12T08:14:28;37.20;;;24.83;;
59008;SDS011;44794;42.652;23.318;2022-10-12T08:16:53;32.65;;;22.42;;
59008;SDS011;44794;42.652;23.318;2022-10-12T08:19:18;37.30;;;22.30;;
59008;SDS011;44794;42.652;23.318;2022-10-12T08:21:44;31.85;;;20.23;;
59008;SDS011;44794;42.652;23.318;2022-10-12T08:24:10;35.45;;;20.65;;
59008;SDS011;44794;42.652;23.318;2022-10-12T08:26:36;30.60;;;19.67;;
59008;SDS011;44794;42.652;23.318;2022-10-12T08:29:03;32.63;;;20.17;;
59008;SDS011;44794;42.652;23.318;2022-10-12T08:31:30;41.05;;;19.38;;
59008;SDS011;44794;42.652;23.318;2022-10-12T08:33:56;24.77;;;16.70;;
59008;SDS011;44794;42.652;23.318;2022-10-12T08:36:22;27.27;;;16.70;;
59008;SDS011;44794;42.652;23.318;2022-10-12T08:38:51;30.42;;;16.00;;
59008;SDS011;44794;42.652;23.318;2022-10-12T08:46:39;29.77;;;17.23;;
59008;SDS011;44794;42.652;23.318;2022-10-12T08:49:14;29.38;;;17.08;;
59008;SDS011;44794;42.652;23.318;2022-10-12T08:51:44;32.05;;;17.35;;
59008;SDS011;44794;42.652;23.318;2022-10-12T08:54:14;34.08;;;18.38;;
59008;SDS011;44794;42.652;23.318;2022-10-12T08:56:43;33.13;;;17.88;;
59008;SDS011;44794;42.652;23.318;2022-10-12T08:59:12;30.35;;;18.15;;
59008;SDS011;44794;42.652;23.318;2022-10-12T09:13:21;29.33;;;17.45;;
59008;SDS011;44794;42.652;23.318;2022-10-12T09:16:05;30.85;;;18.27;;
59008;SDS011;44794;42.652;23.318;2022-10-12T09:18:47;29.23;;;18.85;;
59008;SDS011;44794;42.652;23.318;2022-10-12T09:21:17;30.52;;;17.95;;
59008;SDS011;44794;42.652;23.318;2022-10-12T09:23:44;27.83;;;17.52;;
59008;SDS011;44794;42.652;23.318;2022-10-12T09:28:44;29.58;;;18.38;;
59008;SDS011;44794;42.652;23.318;2022-10-12T09:33:53;28.75;;;17.58;;
59008;SDS011;44794;42.652;23.318;2022-10-12T09:36:22;31.35;;;18.77;;
59008;SDS011;44794;42.652;23.318;2022-10-12T09:38:52;31.95;;;18.73;;
59008;SDS011;44794;42.652;23.318;2022-10-12T09:41:21;28.40;;;17.90;;
59008;SDS011;44794;42.652;23.318;2022-10-12T09:43:59;26.67;;;16.55;;
59008;SDS011;44794;42.652;23.318;2022-10-12T09:46:47;25.85;;;17.17;;
59008;SDS011;44794;42.652;23.318;2022-10-12T09:49:17;24.52;;;16.48;;
59008;SDS011;44794;42.652;23.318;2022-10-12T09:51:43;24.58;;;16.30;;
59008;SDS011;44794;42.652;23.318;2022-10-12T09:54:14;25.50;;;17.67;;
59008;SDS011;44794;42.652;23.318;2022-10-12T09:56:45;28.77;;;16.85;;
59008;SDS011;44794;42.652;23.318;2022-10-12T10:04:32;25.88;;;16.42;;
59008;SDS011;44794;42.652;23.318;2022-10-12T10:15:17;24.15;;;16.63;;
59008;SDS011;44794;42.652;23.318;2022-10-12T10:17:46;30.05;;;17.23;;
59008;SDS011;44794;42.652;23.318;2022-10-12T10:20:31;26.67;;;16.75;;
59008;SDS011;44794;42.652;23.318;2022-10-12T10:23:03;25.67;;;17.20;;
59008;SDS011;44794;42.652;23.318;2022-10-12T10:25:29;24.52;;;16.38;;
59008;SDS011;44794;42.652;23.318;2022-10-12T10:28:10;29.70;;;16.15;;
59008;SDS011;44794;42.652;23.318;2022-10-12T10:30:56;29.40;;;16.75;;
59008;SDS011;44794;42.652;23.318;2022-10-12T10:33:22;25.73;;;16.08;;
59008;SDS011;44794;42.652;23.318;2022-10-12T10:38:25;24.52;;;15.63;;
59008;SDS011;44794;42.652;23.318;2022-10-12T10:40:51;26.65;;;16.05;;
59008;SDS011;44794;42.652;23.318;2022-10-12T10:43:25;19.65;;;14.48;;
59008;SDS011;44794;42.652;23.318;2022-10-12T10:45:59;21.20;;;15.15;;
59008;SDS011;44794;42.652;23.318;2022-10-12T10:48:28;21.80;;;15.15;;
59008;SDS011;44794;42.652;23.318;2022-10-12T10:51:00;17.73;;;12.80;;
59008;SDS011;44794;42.652;23.318;2022-10-12T10:53:30;25.10;;;14.15;;
59008;SDS011;44794;42.652;23.318;2022-10-12T10:56:07;19.35;;;13.65;;
59008;SDS011;44794;42.652;23.318;2022-10-12T10:58:42;22.33;;;13.70;;
59008;SDS011;44794;42.652;23.318;2022-10-12T11:01:21;21.30;;;14.57;;
59008;SDS011;44794;42.652;23.318;2022-10-12T11:03:59;24.48;;;14.63;;
59008;SDS011;44794;42.652;23.318;2022-10-12T11:06:39;21.10;;;14.57;;
59008;SDS011;44794;42.652;23.318;2022-10-12T11:09:10;19.13;;;14.60;;
59008;SDS011;44794;42.652;23.318;2022-10-12T11:11:36;22.52;;;14.05;;
59008;SDS011;44794;42.652;23.318;2022-10-12T11:14:13;20.92;;;14.15;;
59008;SDS011;44794;42.652;23.318;2022-10-12T11:16:44;24.52;;;15.82;;
59008;SDS011;44794;42.652;23.318;2022-10-12T11:24:40;18.13;;;13.30;;
59008;SDS011;44794;42.652;23.318;2022-10-12T11:27:25;20.63;;;14.55;;
59008;SDS011;44794;42.652;23.318;2022-10-12T11:29:59;21.48;;;13.50;;
59008;SDS011;44794;42.652;23.318;2022-10-12T11:33:01;19.08;;;14.13;;
59008;SDS011;44794;42.652;23.318;2022-10-12T11:35:50;21.75;;;14.98;;
59008;SDS011;44794;42.652;23.318;2022-10-12T11:38:24;21.17;;;14.27;;
59008;SDS011;44794;42.652;23.318;2022-10-12T11:41:16;23.63;;;14.82;;
59008;SDS011;44794;42.652;23.318;2022-10-12T11:46:44;24.83;;;15.85;;
59008;SDS011;44794;42.652;23.318;2022-10-12T11:49:22;27.35;;;14.98;;
59008;SDS011;44794;42.652;23.318;2022-10-12T11:51:53;25.70;;;14.90;;
59008;SDS011;44794;42.652;23.318;2022-10-12T11:57:13;25.42;;;15.10;;
59008;SDS011;44794;42.652;23.318;2022-10-12T11:59:45;21.65;;;14.35;;
59008;SDS011;44794;42.652;23.318;2022-10-12T12:02:23;21.25;;;14.63;;
59008;SDS011;44794;42.652;23.318;2022-10-12T12:04:54;23.23;;;14.05;;
59008;SDS011;44794;42.652;23.318;2022-10-12T12:15:42;19.60;;;14.10;;
59008;SDS011;44794;42.652;23.318;2022-10-12T12:24:49;21.15;;;14.07;;
59008;SDS011;44794;42.652;23.318;2022-10-12T12:27:39;20.38;;;14.63;;
59008;SDS011;44794;42.652;23.318;2022-10-12T12:35:20;23.00;;;14.55;;
59008;SDS011;44794;42.652;23.318;2022-10-12T12:37:47;21.90;;;14.70;;
59008;SDS011;44794;42.652;23.318;2022-10-12T12:40:23;23.15;;;14.60;;
59008;SDS011;44794;42.652;23.318;2022-10-12T12:42:48;20.85;;;14.82;;
59008;SDS011;44794;42.652;23.318;2022-10-12T12:45:38;22.40;;;15.05;;
59008;SDS011;44794;42.652;23.318;2022-10-12T12:48:06;23.02;;;14.98;;
59008;SDS011;44794;42.652;23.318;2022-10-12T12:50:37;19.25;;;14.07;;
59008;SDS011;44794;42.652;23.318;2022-10-12T13:00:53;21.40;;;15.25;;
59008;SDS011;44794;42.652;23.318;2022-10-12T13:19:55;22.15;;;15.60;;
59008;SDS011;44794;42.652;23.318;2022-10-12T13:22:30;27.30;;;16.40;;
59008;SDS011;44794;42.652;23.318;2022-10-12T13:25:00;21.27;;;14.80;;
59008;SDS011;44794;42.652;23.318;2022-10-12T13:27:29;21.55;;;15.73;;
59008;SDS011;44794;42.652;23.318;2022-10-12T13:30:04;23.90;;;16.77;;
59008;SDS011;44794;42.652;23.318;2022-10-12T13:32:44;25.88;;;16.95;;
59008;SDS011;44794;42.652;23.318;2022-10-12T13:35:24;30.00;;;16.33;;
59008;SDS011;44794;42.652;23.318;2022-10-12T13:38:28;25.02;;;16.92;;
59008;SDS011;44794;42.652;23.318;2022-10-12T13:40:53;25.63;;;15.85;;
59008;SDS011;44794;42.652;23.318;2022-10-12T13:43:41;21.70;;;15.48;;
59008;SDS011;44794;42.652;23.318;2022-10-12T13:48:58;26.70;;;17.08;;
59008;SDS011;44794;42.652;23.318;2022-10-12T13:51:24;23.73;;;16.25;;
59008;SDS011;44794;42.652;23.318;2022-10-12T13:53:51;28.13;;;17.95;;
59008;SDS011;44794;42.652;23.318;2022-10-12T13:56:17;25.80;;;17.20;;
59008;SDS011;44794;42.652;23.318;2022-10-12T13:58:45;26.52;;;17.45;;
59008;SDS011;44794;42.652;23.318;2022-10-12T14:01:11;27.83;;;18.60;;
59008;SDS011;44794;42.652;23.318;2022-10-12T14:03:42;27.08;;;18.50;;
59008;SDS011;44794;42.652;23.318;2022-10-12T14:06:51;27.00;;;18.50;;
59008;SDS011;44794;42.652;23.318;2022-10-12T14:09:11;26.25;;;18.38;;
59008;SDS011;44794;42.652;23.318;2022-10-12T14:14:22;26.35;;;17.48;;
59008;SDS011;44794;42.652;23.318;2022-10-12T14:16:52;28.20;;;17.42;;
59008;SDS011;44794;42.652;23.318;2022-10-12T14:22:04;28.95;;;18.95;;
59008;SDS011;44794;42.652;23.318;2022-10-12T14:24:30;29.80;;;18.58;;
59008;SDS011;44794;42.652;23.318;2022-10-12T14:26:57;32.70;;;18.67;;
59008;SDS011;44794;42.652;23.318;2022-10-12T14:32:53;31.33;;;18.98;;
59008;SDS011;44794;42.652;23.318;2022-10-12T14:35:19;28.88;;;18.52;;
59008;SDS011;44794;42.652;23.318;2022-10-12T14:37:54;32.60;;;19.50;;
59008;SDS011;44794;42.652;23.318;2022-10-12T14:43:18;31.23;;;18.30;;
59008;SDS011;44794;42.652;23.318;2022-10-12T14:45:48;28.80;;;17.70;;
59008;SDS011;44794;42.652;23.318;2022-10-12T14:48:16;32.15;;;19.02;;
59008;SDS011;44794;42.652;23.318;2022-10-12T14:50:44;30.27;;;19.10;;
59008;SDS011;44794;42.652;23.318;2022-10-12T14:53:11;28.90;;;18.35;;
59008;SDS011;44794;42.652;23.318;2022-10-12T14:55:37;26.40;;;19.05;;
59008;SDS011;44794;42.652;23.318;2022-10-12T14:58:03;34.47;;;19.50;;
59008;SDS011;44794;42.652;23.318;2022-10-12T15:00:35;32.55;;;19.55;;
59008;SDS011;44794;42.652;23.318;2022-10-12T15:03:01;31.33;;;19.65;;
59008;SDS011;44794;42.652;23.318;2022-10-12T15:05:29;31.33;;;19.55;;
59008;SDS011;44794;42.652;23.318;2022-10-12T15:07:56;29.98;;;19.48;;
59008;SDS011;44794;42.652;23.318;2022-10-12T15:10:23;29.75;;;19.90;;
59008;SDS011;44794;42.652;23.318;2022-10-12T15:12:49;34.72;;;20.88;;
59008;SDS011;44794;42.652;23.318;2022-10-12T15:16:01;29.02;;;19.50;;
59008;SDS011;44794;42.652;23.318;2022-10-12T15:18:06;36.35;;;20.48;;
59008;SDS011;44794;42.652;23.318;2022-10-12T15:20:33;32.70;;;20.70;;
59008;SDS011;44794;42.652;23.318;2022-10-12T15:22:59;32.13;;;20.52;;
59008;SDS011;44794;42.652;23.318;2022-10-12T15:28:08;32.95;;;19.80;;
59008;SDS011;44794;42.652;23.318;2022-10-12T15:30:34;32.15;;;20.52;;
59008;SDS011;44794;42.652;23.318;2022-10-12T15:32:59;34.85;;;21.52;;
59008;SDS011;44794;42.652;23.318;2022-10-12T15:35:26;36.17;;;21.02;;
59008;SDS011;44794;42.652;23.318;2022-10-12T15:37:52;29.90;;;20.75;;
59008;SDS011;44794;42.652;23.318;2022-10-12T15:40:22;36.13;;;22.05;;
59008;SDS011;44794;42.652;23.318;2022-10-12T15:42:48;33.50;;;21.70;;
59008;SDS011;44794;42.652;23.318;2022-10-12T15:45:24;39.08;;;23.58;;
59008;SDS011;44794;42.652;23.318;2022-10-12T15:47:51;37.38;;;24.10;;
59008;SDS011;44794;42.652;23.318;2022-10-12T15:50:19;36.22;;;23.40;;
59008;SDS011;44794;42.652;23.318;2022-10-12T15:52:47;41.03;;;24.50;;
59008;SDS011;44794;42.652;23.318;2022-10-12T15:55:17;42.03;;;26.35;;
59008;SDS011;44794;42.652;23.318;2022-10-12T15:57:47;42.28;;;24.42;;
59008;SDS011;44794;42.652;23.318;2022-10-12T16:00:13;40.85;;;25.40;;
59008;SDS011;44794;42.652;23.318;2022-10-12T16:02:40;41.83;;;24.42;;
59008;SDS011;44794;42.652;23.318;2022-10-12T16:05:15;34.90;;;22.95;;
59008;SDS011;44794;42.652;23.318;2022-10-12T16:07:45;38.13;;;23.02;;
59008;SDS011;44794;42.652;23.318;2022-10-12T16:10:11;39.45;;;23.30;;
59008;SDS011;44794;42.652;23.318;2022-10-12T16:12:43;37.80;;;23.38;;
59008;SDS011;44794;42.652;23.318;2022-10-12T16:15:11;38.45;;;23.92;;
59008;SDS011;44794;42.652;23.318;2022-10-12T16:17:38;37.22;;;23.95;;
59008;SDS011;44794;42.652;23.318;2022-10-12T16:20:03;37.45;;;24.83;;
59008;SDS011;44794;42.652;23.318;2022-10-12T16:22:30;38.50;;;25.00;;
59008;SDS011;44794;42.652;23.318;2022-10-12T16:24:56;44.08;;;24.95;;
59008;SDS011;44794;42.652;23.318;2022-10-12T16:27:21;40.83;;;24.08;;
59008;SDS011;44794;42.652;23.318;2022-10-12T16:29:47;38.78;;;23.70;;
59008;SDS011;44794;42.652;23.318;2022-10-12T16:32:12;37.78;;;23.63;;
59008;SDS011;44794;42.652;23.318;2022-10-12T16:34:37;44.97;;;24.33;;
59008;SDS011;44794;42.652;23.318;2022-10-12T16:37:03;39.97;;;24.38;;
59008;SDS011;44794;42.652;23.318;2022-10-12T16:39:28;38.53;;;24.17;;
59008;SDS011;44794;42.652;23.318;2022-10-12T16:41:54;38.92;;;23.92;;